createdAt,value
2023-06-04T00:00:02.657Z,14.17
2023-06-04T00:02:38.523Z,14.18
2023-06-04T00:05:11.444Z,14.12
2023-06-04T00:07:41.616Z,14.07
2023-06-04T00:10:13.764Z,13.93
2023-06-04T00:12:45.585Z,13.98
2023-06-04T00:15:18.447Z,13.97
2023-06-04T00:17:50.492Z,13.76
2023-06-04T00:20:22.615Z,13.66
2023-06-04T00:22:54.317Z,13.63
2023-06-04T00:25:26.158Z,13.63
2023-06-04T00:27:58.020Z,13.62
2023-06-04T00:30:29.980Z,13.60
2023-06-04T00:33:03.195Z,13.53
2023-06-04T00:35:35.692Z,13.57
2023-06-04T00:38:07.503Z,13.51
2023-06-04T00:40:39.158Z,13.51
2023-06-04T00:43:11.456Z,13.49
2023-06-04T00:45:44.703Z,13.47
2023-06-04T00:48:16.618Z,13.30
2023-06-04T00:50:49.641Z,13.24
2023-06-04T00:53:21.776Z,13.14
2023-06-04T00:55:53.677Z,13.07
2023-06-04T00:58:26.429Z,13.09
2023-06-04T01:01:05.718Z,13.04
2023-06-04T01:03:43.516Z,13.02
2023-06-04T01:06:22.303Z,13.00
2023-06-04T01:08:56.275Z,13.05
2023-06-04T01:11:38.854Z,13.07
2023-06-04T01:14:12.482Z,13.08
2023-06-04T01:16:51.463Z,13.03
2023-06-04T01:19:49.075Z,12.97
2023-06-04T01:22:32.622Z,12.94
2023-06-04T01:25:07.675Z,12.97
2023-06-04T01:27:41.391Z,12.90
2023-06-04T01:30:15.334Z,12.87
2023-06-04T01:32:48.715Z,12.83
2023-06-04T01:35:20.604Z,12.83
2023-06-04T01:37:52.892Z,12.74
2023-06-04T01:40:26.122Z,12.66
2023-06-04T01:42:58.691Z,12.63
2023-06-04T01:45:30.965Z,12.56
2023-06-04T01:48:05.328Z,12.51
2023-06-04T01:50:37.571Z,12.45
2023-06-04T01:53:09.311Z,12.35
2023-06-04T01:55:41.056Z,12.25
2023-06-04T01:58:12.779Z,12.26
2023-06-04T02:00:44.885Z,12.33
2023-06-04T02:03:17.238Z,12.27
2023-06-04T02:05:49.950Z,12.28
2023-06-04T02:08:22.190Z,12.29
2023-06-04T02:10:53.979Z,12.35
2023-06-04T02:13:25.800Z,12.38
2023-06-04T02:15:57.546Z,12.32
2023-06-04T02:18:29.780Z,12.22
2023-06-04T02:21:01.950Z,12.23
2023-06-04T02:23:33.892Z,12.24
2023-06-04T02:26:06.337Z,12.21
2023-06-04T02:28:38.238Z,12.14
2023-06-04T02:31:10.066Z,12.16
2023-06-04T02:33:42.619Z,12.20
2023-06-04T02:36:14.447Z,12.26
2023-06-04T02:38:46.401Z,12.19
2023-06-04T02:41:18.245Z,12.19
2023-06-04T02:43:49.968Z,11.97
2023-06-04T02:46:21.749Z,11.84
2023-06-04T02:48:53.690Z,11.91
2023-06-04T02:51:25.395Z,11.84
2023-06-04T02:53:57.558Z,11.79
2023-06-04T02:56:29.290Z,11.88
2023-06-04T02:59:00.993Z,11.93
2023-06-04T03:01:33.178Z,11.94
2023-06-04T03:04:06.037Z,11.89
2023-06-04T03:06:39.223Z,11.96
2023-06-04T03:09:11.025Z,11.98
2023-06-04T03:11:43.394Z,11.84
2023-06-04T03:14:15.229Z,11.91
2023-06-04T03:16:46.988Z,11.97
2023-06-04T03:19:18.893Z,12.06
2023-06-04T03:21:53.270Z,12.11
2023-06-04T03:24:25.144Z,12.13
2023-06-04T03:26:56.863Z,12.17
2023-06-04T03:29:28.649Z,12.18
2023-06-04T03:32:00.458Z,12.21
2023-06-04T03:34:35.499Z,12.19
2023-06-04T03:37:07.841Z,12.08
2023-06-04T03:39:39.974Z,12.14
2023-06-04T03:42:14.759Z,12.12
2023-06-04T03:44:47.409Z,12.13
2023-06-04T03:47:20.092Z,12.23
2023-06-04T03:49:51.923Z,12.25
2023-06-04T03:52:24.501Z,12.20
2023-06-04T03:54:57.209Z,12.24
2023-06-04T03:57:29.203Z,12.31
2023-06-04T04:00:01.249Z,12.36
2023-06-04T04:02:34.087Z,12.41
2023-06-04T04:05:06.523Z,12.39
2023-06-04T04:07:38.341Z,12.45
2023-06-04T04:10:12.024Z,12.39
2023-06-04T04:12:43.815Z,12.39
2023-06-04T04:15:15.848Z,12.45
2023-06-04T04:17:46.933Z,12.43
2023-06-04T04:20:20.242Z,12.56
2023-06-04T04:22:56.244Z,12.64
2023-06-04T04:25:28.811Z,12.58
2023-06-04T04:28:01.784Z,12.61
2023-06-04T04:30:35.978Z,12.66
2023-06-04T04:33:09.106Z,12.81
2023-06-04T04:35:49.148Z,12.87
2023-06-04T04:38:25.114Z,12.91
2023-06-04T04:41:03.278Z,13.03
2023-06-04T04:43:38.502Z,13.07
2023-06-04T04:46:15.928Z,13.15
2023-06-04T04:48:47.713Z,13.24
2023-06-04T04:51:19.962Z,13.29
2023-06-04T04:53:51.857Z,13.28
2023-06-04T04:56:24.337Z,13.31
2023-06-04T04:58:56.766Z,13.38
2023-06-04T05:01:28.556Z,13.45
2023-06-04T05:04:02.688Z,13.51
2023-06-04T05:06:35.528Z,13.56
2023-06-04T05:09:08.604Z,13.61
2023-06-04T05:11:41.418Z,13.67
2023-06-04T05:14:13.280Z,13.68
2023-06-04T05:16:46.518Z,13.71
2023-06-04T05:19:19.375Z,13.76
2023-06-04T05:21:52.215Z,13.87
2023-06-04T05:24:24.178Z,13.92
2023-06-04T05:26:56.054Z,14.00
2023-06-04T05:29:28.022Z,14.07
2023-06-04T05:31:59.956Z,14.15
2023-06-04T05:34:31.979Z,14.20
2023-06-04T05:37:05.063Z,14.23
2023-06-04T05:39:36.952Z,14.29
2023-06-04T05:42:16.331Z,14.34
2023-06-04T05:44:49.150Z,14.37
2023-06-04T05:47:22.036Z,14.41
2023-06-04T05:49:53.842Z,14.43
2023-06-04T05:52:26.427Z,14.48
2023-06-04T05:54:58.416Z,14.52
2023-06-04T05:57:30.938Z,14.64
2023-06-04T06:00:02.759Z,14.71
2023-06-04T06:02:35.772Z,14.73
2023-06-04T06:05:09.269Z,14.79
2023-06-04T06:07:41.138Z,14.87
2023-06-04T06:10:14.508Z,14.95
2023-06-04T06:12:46.634Z,15.02
2023-06-04T06:15:18.871Z,15.06
2023-06-04T06:17:54.696Z,15.10
2023-06-04T06:20:27.129Z,15.18
2023-06-04T06:22:59.231Z,15.23
2023-06-04T06:25:31.521Z,15.32
2023-06-04T06:28:09.121Z,15.34
2023-06-04T06:30:40.707Z,15.41
2023-06-04T06:33:12.424Z,15.51
2023-06-04T06:35:47.411Z,15.59
2023-06-04T06:38:19.439Z,15.66
2023-06-04T06:40:52.476Z,15.70
2023-06-04T06:43:24.678Z,15.74
2023-06-04T06:45:56.841Z,15.80
2023-06-04T06:48:28.733Z,15.85
2023-06-04T06:51:00.559Z,15.92
2023-06-04T06:53:32.900Z,15.96
2023-06-04T06:56:04.832Z,15.95
2023-06-04T06:58:37.793Z,16.04
2023-06-04T07:01:08.363Z,16.05
2023-06-04T07:03:40.784Z,16.09
2023-06-04T07:06:12.849Z,16.30
2023-06-04T07:08:45.168Z,16.50
2023-06-04T07:11:17.810Z,16.77
2023-06-04T07:13:48.232Z,16.93
2023-06-04T07:16:21.294Z,16.83
2023-06-04T07:18:53.228Z,16.75
2023-06-04T07:21:25.359Z,16.76
2023-06-04T07:23:57.311Z,16.71
2023-06-04T07:26:33.306Z,16.82
2023-06-04T07:29:06.764Z,16.85
2023-06-04T07:31:38.708Z,16.87
2023-06-04T07:34:10.607Z,16.92
2023-06-04T07:36:42.536Z,16.96
2023-06-04T07:39:14.432Z,16.99
2023-06-04T07:41:46.367Z,16.99
2023-06-04T07:44:18.199Z,17.05
2023-06-04T07:46:50.472Z,17.15
2023-06-04T07:49:22.609Z,17.19
2023-06-04T07:51:54.388Z,17.23
2023-06-04T07:54:26.974Z,17.27
2023-06-04T07:56:58.494Z,17.30
2023-06-04T07:59:30.753Z,17.33
2023-06-04T08:02:02.764Z,17.38
2023-06-04T08:04:34.625Z,17.49
2023-06-04T08:07:06.700Z,17.57
2023-06-04T08:09:38.829Z,17.63
2023-06-04T08:12:11.484Z,17.68
2023-06-04T08:14:41.765Z,17.64
2023-06-04T08:17:13.641Z,17.70
2023-06-04T08:19:45.455Z,17.72
2023-06-04T08:22:17.281Z,17.73
2023-06-04T08:24:49.262Z,17.74
2023-06-04T08:27:20.916Z,17.68
2023-06-04T08:29:53.330Z,17.70
2023-06-04T08:32:25.474Z,17.79
2023-06-04T08:34:57.575Z,17.85
2023-06-04T08:37:29.911Z,17.88
2023-06-04T08:40:01.682Z,17.99
2023-06-04T08:42:40.222Z,18.11
2023-06-04T08:45:14.326Z,18.21
2023-06-04T08:47:50.379Z,18.24
2023-06-04T08:50:24.813Z,18.23
2023-06-04T08:52:58.121Z,18.28
2023-06-04T08:55:30.375Z,18.29
2023-06-04T08:58:04.554Z,18.24
2023-06-04T09:00:36.360Z,18.27
2023-06-04T09:03:08.347Z,18.35
2023-06-04T09:05:43.416Z,18.40
2023-06-04T09:08:16.493Z,18.37
2023-06-04T09:10:52.774Z,18.42
2023-06-04T09:13:30.299Z,18.50
2023-06-04T09:16:06.993Z,18.61
2023-06-04T09:18:38.895Z,18.71
2023-06-04T09:21:11.594Z,18.76
2023-06-04T09:23:47.546Z,18.88
2023-06-04T09:26:19.428Z,18.96
2023-06-04T09:28:53.986Z,19.03
2023-06-04T09:31:27.899Z,18.96
2023-06-04T09:33:59.845Z,18.96
2023-06-04T09:36:36.490Z,18.93
2023-06-04T09:39:18.733Z,18.85
2023-06-04T09:42:01.668Z,19.06
2023-06-04T09:44:44.587Z,19.29
2023-06-04T09:47:16.974Z,19.51
2023-06-04T09:49:51.116Z,19.65
2023-06-04T09:52:22.951Z,19.67
2023-06-04T09:54:54.684Z,19.86
2023-06-04T09:57:27.516Z,20.08
2023-06-04T10:00:01.386Z,20.27
2023-06-04T10:02:45.305Z,20.44
2023-06-04T10:05:21.589Z,20.62
2023-06-04T10:07:56.124Z,20.74
2023-06-04T10:10:29.665Z,20.90
2023-06-04T10:13:07.612Z,21.04
2023-06-04T10:15:40.385Z,21.14
2023-06-04T10:18:15.262Z,21.21
2023-06-04T10:20:47.942Z,21.29
2023-06-04T10:23:22.147Z,21.32
2023-06-04T10:25:55.208Z,21.48
2023-06-04T10:28:29.236Z,21.61
2023-06-04T10:31:01.952Z,21.54
2023-06-04T10:33:32.206Z,21.57
2023-06-04T10:36:21.065Z,21.63
2023-06-04T10:38:56.095Z,21.61
2023-06-04T10:41:28.848Z,21.76
2023-06-04T10:44:06.307Z,21.57
2023-06-04T10:46:45.368Z,21.62
2023-06-04T10:49:27.962Z,21.88
2023-06-04T10:52:04.191Z,22.03
2023-06-04T10:54:37.035Z,22.09
2023-06-04T10:57:16.871Z,22.04
2023-06-04T10:59:59.051Z,22.07
2023-06-04T11:02:31.059Z,22.19
2023-06-04T11:05:07.172Z,22.26
2023-06-04T11:07:46.618Z,22.42
2023-06-04T11:10:19.517Z,22.61
2023-06-04T11:12:52.504Z,22.77
2023-06-04T11:15:24.578Z,22.87
2023-06-04T11:17:59.430Z,22.69
2023-06-04T11:20:31.614Z,22.74
2023-06-04T11:23:04.380Z,22.55
2023-06-04T11:25:36.373Z,22.57
2023-06-04T11:28:08.767Z,22.60
2023-06-04T11:30:39.324Z,22.72
2023-06-04T11:33:11.305Z,22.85
2023-06-04T11:35:47.953Z,22.95
2023-06-04T11:38:19.901Z,22.98
2023-06-04T11:41:01.490Z,23.18
2023-06-04T11:43:34.049Z,23.24
2023-06-04T11:46:11.856Z,23.29
2023-06-04T11:48:44.949Z,23.34
2023-06-04T11:51:18.098Z,23.38
2023-06-04T11:53:50.839Z,23.49
2023-06-04T11:56:23.241Z,23.58
2023-06-04T11:58:53.691Z,23.69
2023-06-04T12:01:29.768Z,23.78
2023-06-04T12:04:01.705Z,23.83
2023-06-04T12:06:34.294Z,23.84
2023-06-04T12:09:06.459Z,23.96
2023-06-04T12:11:38.616Z,23.93
2023-06-04T12:14:17.753Z,23.79
2023-06-04T12:16:59.746Z,23.44
2023-06-04T12:19:32.621Z,23.33
2023-06-04T12:22:06.396Z,23.29
2023-06-04T12:24:54.187Z,23.39
2023-06-04T12:27:27.609Z,23.57
2023-06-04T12:30:01.137Z,23.71
2023-06-04T12:32:36.904Z,23.74
2023-06-04T12:35:10.226Z,23.49
2023-06-04T12:37:42.197Z,23.27
2023-06-04T12:40:15.090Z,23.24
2023-06-04T12:42:47.104Z,23.31
2023-06-04T12:45:19.367Z,23.44
2023-06-04T12:47:51.726Z,23.62
2023-06-04T12:50:22.919Z,23.78
2023-06-04T12:52:54.972Z,23.72
2023-06-04T12:55:28.365Z,23.81
2023-06-04T12:58:01.687Z,23.89
2023-06-04T13:00:33.616Z,23.97
2023-06-04T13:03:07.013Z,23.99
2023-06-04T13:05:40.396Z,24.01
2023-06-04T13:08:12.496Z,24.15
2023-06-04T13:10:44.326Z,24.21
2023-06-04T13:13:28.025Z,24.20
2023-06-04T13:16:00.381Z,24.18
2023-06-04T13:18:32.380Z,24.14
2023-06-04T13:21:10.647Z,24.17
2023-06-04T13:26:21.377Z,24.16
2023-06-04T13:28:53.725Z,24.16
2023-06-04T13:31:26.308Z,24.04
2023-06-04T13:33:57.147Z,24.12
2023-06-04T13:36:30.016Z,24.35
2023-06-04T13:39:02.542Z,24.53
2023-06-04T13:41:35.604Z,24.64
2023-06-04T13:44:08.462Z,24.69
2023-06-04T13:46:43.013Z,24.71
2023-06-04T13:49:14.961Z,24.68
2023-06-04T13:51:47.143Z,24.71
2023-06-04T13:54:19.385Z,24.84
2023-06-04T13:56:52.454Z,24.60
2023-06-04T13:59:24.447Z,24.70
2023-06-04T14:01:56.325Z,24.86
2023-06-04T14:04:28.123Z,24.78
2023-06-04T14:07:00.317Z,24.88
2023-06-04T14:09:31.163Z,24.97
2023-06-04T14:12:03.677Z,25.03
2023-06-04T14:14:38.201Z,25.35
2023-06-04T14:17:10.150Z,25.45
2023-06-04T14:19:42.410Z,25.36
2023-06-04T14:22:14.797Z,25.35
2023-06-04T14:24:46.989Z,25.30
2023-06-04T14:27:19.516Z,25.34
2023-06-04T14:29:49.905Z,25.55
2023-06-04T14:32:21.981Z,25.75
2023-06-04T14:34:54.054Z,25.95
2023-06-04T14:37:26.450Z,25.85
2023-06-04T14:39:58.423Z,25.68
2023-06-04T14:42:30.818Z,25.52
2023-06-04T14:45:02.699Z,25.63
2023-06-04T14:47:34.720Z,25.89
2023-06-04T14:50:07.421Z,26.35
2023-06-04T14:52:39.340Z,26.65
2023-06-04T14:55:12.144Z,27.07
2023-06-04T14:57:44.084Z,27.35
2023-06-04T15:00:17.097Z,27.47
2023-06-04T15:02:49.139Z,27.27
2023-06-04T15:05:21.101Z,27.33
2023-06-04T15:07:53.041Z,27.38
2023-06-04T15:10:24.802Z,27.72
2023-06-04T15:12:57.327Z,27.58
2023-06-04T15:15:29.634Z,27.49
2023-06-04T15:18:01.612Z,27.32
2023-06-04T15:20:33.955Z,27.20
2023-06-04T15:23:05.912Z,27.50
2023-06-04T15:25:40.084Z,27.40
2023-06-04T15:28:11.987Z,27.27
2023-06-04T15:30:43.781Z,27.33
2023-06-04T15:33:17.538Z,27.64
2023-06-04T15:35:49.546Z,27.96
2023-06-04T15:38:21.521Z,28.19
2023-06-04T15:40:53.481Z,28.30
2023-06-04T15:43:25.390Z,28.36
2023-06-04T15:45:57.205Z,28.31
2023-06-04T15:48:30.402Z,28.30
2023-06-04T15:51:02.412Z,28.21
2023-06-04T15:53:34.185Z,28.00
2023-06-04T15:56:06.674Z,28.10
2023-06-04T15:58:38.633Z,28.16
2023-06-04T16:01:10.653Z,28.26
2023-06-04T16:03:44.083Z,28.37
2023-06-04T16:06:16.216Z,28.47
2023-06-04T16:08:48.109Z,28.71
2023-06-04T16:11:20.027Z,28.85
2023-06-04T16:13:52.076Z,28.81
2023-06-04T16:16:24.049Z,28.16
2023-06-04T16:18:56.060Z,27.48
2023-06-04T16:21:27.035Z,27.50
2023-06-04T16:23:58.838Z,27.87
2023-06-04T16:26:31.444Z,28.29
2023-06-04T16:29:03.374Z,28.64
2023-06-04T16:31:35.279Z,28.79
2023-06-04T16:34:07.649Z,29.10
2023-06-04T16:36:40.119Z,29.36
2023-06-04T16:39:12.910Z,29.60
2023-06-04T16:41:45.463Z,29.78
2023-06-04T16:44:17.616Z,29.85
2023-06-04T16:46:49.613Z,29.86
2023-06-04T16:49:21.589Z,29.65
2023-06-04T16:51:52.121Z,29.45
2023-06-04T16:54:24.283Z,29.67
2023-06-04T16:56:59.335Z,29.72
2023-06-04T16:59:33.158Z,29.33
2023-06-04T17:02:05.744Z,28.71
2023-06-04T17:04:37.687Z,28.26
2023-06-04T17:07:10.766Z,27.82
2023-06-04T17:09:42.610Z,27.25
2023-06-04T17:12:13.283Z,26.84
2023-06-04T17:14:45.887Z,26.58
2023-06-04T17:17:18.640Z,26.22
2023-06-04T17:19:51.060Z,26.13
2023-06-04T17:22:23.186Z,26.02
2023-06-04T17:24:55.257Z,25.98
2023-06-04T17:27:27.221Z,25.92
2023-06-04T17:29:59.633Z,26.11
2023-06-04T17:32:31.595Z,26.21
2023-06-04T17:35:05.662Z,26.08
2023-06-04T17:37:37.963Z,25.92
2023-06-04T17:40:11.471Z,25.81
2023-06-04T17:42:47.560Z,25.63
2023-06-04T17:45:20.083Z,25.36
2023-06-04T17:47:52.668Z,25.18
2023-06-04T17:50:25.177Z,25.03
2023-06-04T17:52:57.050Z,24.84
2023-06-04T17:55:31.712Z,24.70
2023-06-04T17:58:03.994Z,24.57
2023-06-04T18:00:34.559Z,24.53
2023-06-04T18:03:08.672Z,24.33
2023-06-04T18:05:41.536Z,24.20
2023-06-04T18:08:14.721Z,24.16
2023-06-04T18:10:47.002Z,24.10
2023-06-04T18:13:19.778Z,23.96
2023-06-04T18:15:51.788Z,23.74
2023-06-04T18:18:24.959Z,23.65
2023-06-04T18:20:58.195Z,23.43
2023-06-04T18:23:30.472Z,23.33
2023-06-04T18:26:03.164Z,23.22
2023-06-04T18:28:35.882Z,23.15
2023-06-04T18:31:08.941Z,23.03
2023-06-04T18:33:53.150Z,22.97
2023-06-04T18:36:25.452Z,22.88
2023-06-04T18:38:58.910Z,22.78
2023-06-04T18:41:29.415Z,22.70
2023-06-04T18:44:01.309Z,22.66
2023-06-04T18:46:34.618Z,22.53
2023-06-04T18:49:05.591Z,22.45
2023-06-04T18:51:38.250Z,22.29
2023-06-04T18:54:10.716Z,22.19
2023-06-04T18:56:42.879Z,22.06
2023-06-04T18:59:17.697Z,21.98
2023-06-04T19:01:49.759Z,21.87
2023-06-04T19:04:22.010Z,21.74
2023-06-04T19:06:55.204Z,21.68
2023-06-04T19:09:28.332Z,21.66
2023-06-04T19:12:00.135Z,21.61
2023-06-04T19:14:32.635Z,21.52
2023-06-04T19:17:05.399Z,21.47
2023-06-04T19:19:39.154Z,21.39
2023-06-04T19:22:11.082Z,21.29
2023-06-04T19:24:44.321Z,21.25
2023-06-04T19:27:17.824Z,21.15
2023-06-04T19:29:51.190Z,21.01
2023-06-04T19:32:24.341Z,21.00
2023-06-04T19:34:56.513Z,20.97
2023-06-04T19:37:30.148Z,20.86
2023-06-04T19:40:05.607Z,20.81
2023-06-04T19:42:37.834Z,20.77
2023-06-04T19:45:12.129Z,20.72
2023-06-04T19:47:44.605Z,20.64
2023-06-04T19:50:16.834Z,20.62
2023-06-04T19:52:49.006Z,20.44
2023-06-04T19:55:20.782Z,20.33
2023-06-04T19:57:56.568Z,20.24
2023-06-04T20:00:29.791Z,20.22
2023-06-04T20:03:02.599Z,20.21
2023-06-04T20:05:35.381Z,20.13
2023-06-04T20:08:07.557Z,20.08
2023-06-04T20:10:39.612Z,19.95
2023-06-04T20:13:12.138Z,19.92
2023-06-04T20:15:42.667Z,19.91
2023-06-04T20:18:15.349Z,19.86
2023-06-04T20:20:52.948Z,19.85
2023-06-04T20:23:25.052Z,19.80
2023-06-04T20:25:59.977Z,19.74
2023-06-04T20:28:34.001Z,19.72
2023-06-04T20:31:05.972Z,19.69
2023-06-04T20:33:38.112Z,19.66
2023-06-04T20:36:10.243Z,19.70
2023-06-04T20:38:41.234Z,19.75
2023-06-04T20:41:13.174Z,19.65
2023-06-04T20:43:53.824Z,19.52
2023-06-04T20:46:26.349Z,19.40
2023-06-04T20:48:58.210Z,19.36
2023-06-04T20:51:30.628Z,19.25
2023-06-04T20:54:02.513Z,19.15
2023-06-04T20:56:34.812Z,19.05
2023-06-04T20:59:06.632Z,18.97
2023-06-04T21:01:38.549Z,18.81
2023-06-04T21:04:11.788Z,18.65
2023-06-04T21:06:44.282Z,18.47
2023-06-04T21:09:16.152Z,18.44
2023-06-04T21:11:48.118Z,18.43
2023-06-04T21:14:19.970Z,18.44
2023-06-04T21:16:52.022Z,18.35
2023-06-04T21:19:23.801Z,18.37
2023-06-04T21:21:56.459Z,18.10
2023-06-04T21:24:28.392Z,17.86
2023-06-04T21:27:00.233Z,17.74
2023-06-04T21:29:32.383Z,17.73
2023-06-04T21:32:05.424Z,17.58
2023-06-04T21:34:38.616Z,17.59
2023-06-04T21:37:10.568Z,17.57
2023-06-04T21:39:42.467Z,17.57
2023-06-04T21:42:14.579Z,17.61
2023-06-04T21:44:46.563Z,17.61
2023-06-04T21:47:18.992Z,17.55
2023-06-04T21:49:51.708Z,17.44
2023-06-04T21:52:25.891Z,17.47
2023-06-04T21:54:58.074Z,17.36
2023-06-04T21:57:30.070Z,17.25
2023-06-04T22:00:02.977Z,17.11
2023-06-04T22:02:45.170Z,17.04
2023-06-04T22:05:17.344Z,17.14
2023-06-04T22:07:49.464Z,17.05
2023-06-04T22:10:21.245Z,16.95
2023-06-04T22:12:53.048Z,16.88
2023-06-04T22:15:24.958Z,16.83
2023-06-04T22:18:00.361Z,16.79
2023-06-04T22:20:32.798Z,16.83
2023-06-04T22:23:05.271Z,16.81
2023-06-04T22:25:37.196Z,16.81
2023-06-04T22:28:09.100Z,16.75
2023-06-04T22:30:41.388Z,16.74
2023-06-04T22:33:13.420Z,16.69
2023-06-04T22:35:45.317Z,16.64
2023-06-04T22:38:17.191Z,16.57
2023-06-04T22:40:49.247Z,16.49
2023-06-04T22:43:21.472Z,16.52
2023-06-04T22:45:53.517Z,16.52
2023-06-04T22:48:25.336Z,16.49
2023-06-04T22:50:57.886Z,16.40
2023-06-04T22:53:29.950Z,16.38
2023-06-04T22:56:07.419Z,16.31
2023-06-04T22:58:39.767Z,16.26
2023-06-04T23:01:11.648Z,16.21
2023-06-04T23:03:45.440Z,16.25
2023-06-04T23:06:17.583Z,16.34
2023-06-04T23:08:49.780Z,16.34
2023-06-04T23:11:21.659Z,16.40
2023-06-04T23:13:53.887Z,16.46
2023-06-04T23:16:25.686Z,16.36
2023-06-04T23:18:57.523Z,16.31
2023-06-04T23:21:29.261Z,16.33
2023-06-04T23:24:00.967Z,16.35
2023-06-04T23:26:32.883Z,16.39
2023-06-04T23:29:05.033Z,16.46
2023-06-04T23:31:36.962Z,16.46
2023-06-04T23:34:08.761Z,16.44
2023-06-04T23:36:40.448Z,16.42
2023-06-04T23:39:12.432Z,16.35
2023-06-04T23:41:44.110Z,16.34
2023-06-04T23:44:18.221Z,16.32
2023-06-04T23:46:50.740Z,16.29
2023-06-04T23:49:22.490Z,16.27
2023-06-04T23:51:54.270Z,16.26
2023-06-04T23:54:26.250Z,16.27
2023-06-04T23:56:58.227Z,16.21
2023-06-04T23:59:29.906Z,16.24
